sensor_id;sensor_type;location;lat;lon;timestamp;P1;durP1;ratioP1;P2;durP2;ratioP2
55146;SDS011;41039;49.830;23.988;2023-07-09T00:01:03;17.20;;;12.60;;
55146;SDS011;41039;49.830;23.988;2023-07-09T00:03:28;15.90;;;11.50;;
55146;SDS011;41039;49.830;23.988;2023-07-09T00:05:53;12.95;;;10.90;;
55146;SDS011;41039;49.830;23.988;2023-07-09T00:10:51;12.80;;;11.02;;
55146;SDS011;41039;49.830;23.988;2023-07-09T00:13:16;15.43;;;11.20;;
55146;SDS011;41039;49.830;23.988;2023-07-09T00:15:42;15.30;;;10.90;;
55146;SDS011;41039;49.830;23.988;2023-07-09T00:18:07;14.93;;;11.80;;
55146;SDS011;41039;49.830;23.988;2023-07-09T00:20:33;15.02;;;10.75;;
55146;SDS011;41039;49.830;23.988;2023-07-09T00:22:58;13.68;;;10.40;;
55146;SDS011;41039;49.830;23.988;2023-07-09T00:25:24;12.13;;;9.90;;
55146;SDS011;41039;49.830;23.988;2023-07-09T00:27:49;17.10;;;10.88;;
55146;SDS011;41039;49.830;23.988;2023-07-09T00:30:17;15.15;;;10.70;;
55146;SDS011;41039;49.830;23.988;2023-07-09T00:32:42;11.55;;;9.85;;
55146;SDS011;41039;49.830;23.988;2023-07-09T00:35:08;13.35;;;10.65;;
55146;SDS011;41039;49.830;23.988;2023-07-09T00:37:33;15.25;;;11.68;;
55146;SDS011;41039;49.830;23.988;2023-07-09T00:39:58;14.33;;;11.73;;
55146;SDS011;41039;49.830;23.988;2023-07-09T00:42:24;16.03;;;12.23;;
55146;SDS011;41039;49.830;23.988;2023-07-09T00:44:52;15.60;;;12.68;;
55146;SDS011;41039;49.830;23.988;2023-07-09T00:47:21;14.95;;;11.68;;
55146;SDS011;41039;49.830;23.988;2023-07-09T00:49:46;13.52;;;10.63;;
55146;SDS011;41039;49.830;23.988;2023-07-09T00:54:44;13.98;;;11.02;;
55146;SDS011;41039;49.830;23.988;2023-07-09T00:57:14;12.75;;;9.48;;
55146;SDS011;41039;49.830;23.988;2023-07-09T00:59:42;12.65;;;10.23;;
55146;SDS011;41039;49.830;23.988;2023-07-09T01:02:08;14.10;;;10.60;;
55146;SDS011;41039;49.830;23.988;2023-07-09T01:04:34;12.98;;;10.27;;
55146;SDS011;41039;49.830;23.988;2023-07-09T01:06:59;13.88;;;10.75;;
55146;SDS011;41039;49.830;23.988;2023-07-09T01:09:25;12.55;;;10.00;;
55146;SDS011;41039;49.830;23.988;2023-07-09T01:11:51;12.98;;;10.13;;
55146;SDS011;41039;49.830;23.988;2023-07-09T01:14:17;13.57;;;9.18;;
55146;SDS011;41039;49.830;23.988;2023-07-09T01:16:46;13.75;;;8.90;;
55146;SDS011;41039;49.830;23.988;2023-07-09T01:19:13;14.98;;;9.88;;
55146;SDS011;41039;49.830;23.988;2023-07-09T01:21:41;12.25;;;9.38;;
55146;SDS011;41039;49.830;23.988;2023-07-09T01:24:13;11.18;;;8.30;;
55146;SDS011;41039;49.830;23.988;2023-07-09T01:26:39;9.40;;;8.30;;
55146;SDS011;41039;49.830;23.988;2023-07-09T01:29:04;11.50;;;8.27;;
55146;SDS011;41039;49.830;23.988;2023-07-09T01:31:29;12.63;;;7.93;;
55146;SDS011;41039;49.830;23.988;2023-07-09T01:33:54;11.90;;;8.27;;
55146;SDS011;41039;49.830;23.988;2023-07-09T01:36:20;12.37;;;8.10;;
55146;SDS011;41039;49.830;23.988;2023-07-09T01:38:48;10.55;;;8.25;;
55146;SDS011;41039;49.830;23.988;2023-07-09T01:41:14;9.90;;;8.35;;
55146;SDS011;41039;49.830;23.988;2023-07-09T01:43:39;11.68;;;8.48;;
55146;SDS011;41039;49.830;23.988;2023-07-09T01:46:06;10.05;;;8.02;;
55146;SDS011;41039;49.830;23.988;2023-07-09T01:48:32;12.85;;;8.93;;
55146;SDS011;41039;49.830;23.988;2023-07-09T01:51:06;11.73;;;8.68;;
55146;SDS011;41039;49.830;23.988;2023-07-09T01:53:32;12.35;;;8.85;;
55146;SDS011;41039;49.830;23.988;2023-07-09T01:55:58;12.38;;;7.95;;
55146;SDS011;41039;49.830;23.988;2023-07-09T01:58:24;12.02;;;8.23;;
55146;SDS011;41039;49.830;23.988;2023-07-09T02:00:50;14.55;;;8.70;;
55146;SDS011;41039;49.830;23.988;2023-07-09T02:03:15;12.13;;;7.82;;
55146;SDS011;41039;49.830;23.988;2023-07-09T02:05:42;10.88;;;7.85;;
55146;SDS011;41039;49.830;23.988;2023-07-09T02:08:07;12.40;;;8.10;;
55146;SDS011;41039;49.830;23.988;2023-07-09T02:10:33;12.50;;;7.03;;
55146;SDS011;41039;49.830;23.988;2023-07-09T02:12:58;11.47;;;7.33;;
55146;SDS011;41039;49.830;23.988;2023-07-09T02:15:23;9.33;;;7.67;;
55146;SDS011;41039;49.830;23.988;2023-07-09T02:17:48;10.73;;;7.80;;
55146;SDS011;41039;49.830;23.988;2023-07-09T02:20:14;10.75;;;8.05;;
55146;SDS011;41039;49.830;23.988;2023-07-09T02:22:40;10.18;;;8.13;;
55146;SDS011;41039;49.830;23.988;2023-07-09T02:25:06;10.90;;;8.02;;
55146;SDS011;41039;49.830;23.988;2023-07-09T02:27:32;10.13;;;7.47;;
55146;SDS011;41039;49.830;23.988;2023-07-09T02:29:57;11.63;;;7.10;;
55146;SDS011;41039;49.830;23.988;2023-07-09T02:32:23;10.60;;;7.65;;
55146;SDS011;41039;49.830;23.988;2023-07-09T02:34:49;15.80;;;7.20;;
55146;SDS011;41039;49.830;23.988;2023-07-09T02:37:18;10.05;;;7.10;;
55146;SDS011;41039;49.830;23.988;2023-07-09T02:39:43;11.13;;;7.53;;
55146;SDS011;41039;49.830;23.988;2023-07-09T02:42:09;10.68;;;7.03;;
55146;SDS011;41039;49.830;23.988;2023-07-09T02:44:35;9.95;;;6.28;;
55146;SDS011;41039;49.830;23.988;2023-07-09T02:47:00;10.13;;;6.20;;
55146;SDS011;41039;49.830;23.988;2023-07-09T02:49:25;10.43;;;6.70;;
55146;SDS011;41039;49.830;23.988;2023-07-09T02:51:50;9.30;;;6.55;;
55146;SDS011;41039;49.830;23.988;2023-07-09T02:54:15;10.40;;;7.03;;
55146;SDS011;41039;49.830;23.988;2023-07-09T02:56:41;10.77;;;7.07;;
55146;SDS011;41039;49.830;23.988;2023-07-09T02:59:06;9.97;;;6.77;;
55146;SDS011;41039;49.830;23.988;2023-07-09T03:01:31;9.02;;;6.72;;
55146;SDS011;41039;49.830;23.988;2023-07-09T03:03:59;13.60;;;6.82;;
55146;SDS011;41039;49.830;23.988;2023-07-09T03:06:26;9.50;;;6.68;;
55146;SDS011;41039;49.830;23.988;2023-07-09T03:08:52;12.60;;;6.97;;
55146;SDS011;41039;49.830;23.988;2023-07-09T03:11:18;10.30;;;6.75;;
55146;SDS011;41039;49.830;23.988;2023-07-09T03:13:43;12.05;;;7.03;;
55146;SDS011;41039;49.830;23.988;2023-07-09T03:16:09;10.10;;;6.77;;
55146;SDS011;41039;49.830;23.988;2023-07-09T03:18:34;10.85;;;6.75;;
55146;SDS011;41039;49.830;23.988;2023-07-09T03:20:59;10.73;;;6.90;;
55146;SDS011;41039;49.830;23.988;2023-07-09T03:23:25;7.80;;;6.60;;
55146;SDS011;41039;49.830;23.988;2023-07-09T03:25:50;11.43;;;6.55;;
55146;SDS011;41039;49.830;23.988;2023-07-09T03:28:15;9.85;;;6.55;;
55146;SDS011;41039;49.830;23.988;2023-07-09T03:30:41;10.98;;;6.75;;
55146;SDS011;41039;49.830;23.988;2023-07-09T03:33:06;11.50;;;6.47;;
55146;SDS011;41039;49.830;23.988;2023-07-09T03:35:32;10.27;;;6.90;;
55146;SDS011;41039;49.830;23.988;2023-07-09T03:37:57;8.85;;;6.75;;
55146;SDS011;41039;49.830;23.988;2023-07-09T03:40:22;13.50;;;6.87;;
55146;SDS011;41039;49.830;23.988;2023-07-09T03:42:48;10.10;;;7.10;;
55146;SDS011;41039;49.830;23.988;2023-07-09T03:45:13;10.32;;;7.05;;
55146;SDS011;41039;49.830;23.988;2023-07-09T03:47:38;10.70;;;6.80;;
55146;SDS011;41039;49.830;23.988;2023-07-09T03:50:05;10.32;;;6.85;;
55146;SDS011;41039;49.830;23.988;2023-07-09T03:52:31;12.52;;;8.50;;
55146;SDS011;41039;49.830;23.988;2023-07-09T03:54:56;11.60;;;7.80;;
55146;SDS011;41039;49.830;23.988;2023-07-09T03:57:21;18.50;;;10.43;;
55146;SDS011;41039;49.830;23.988;2023-07-09T03:59:46;14.07;;;9.53;;
55146;SDS011;41039;49.830;23.988;2023-07-09T04:02:11;15.80;;;9.10;;
55146;SDS011;41039;49.830;23.988;2023-07-09T04:04:37;17.07;;;9.87;;
55146;SDS011;41039;49.830;23.988;2023-07-09T04:07:02;14.30;;;9.80;;
55146;SDS011;41039;49.830;23.988;2023-07-09T04:09:27;14.40;;;9.93;;
55146;SDS011;41039;49.830;23.988;2023-07-09T04:11:53;17.08;;;11.40;;
55146;SDS011;41039;49.830;23.988;2023-07-09T04:14:18;16.58;;;10.00;;
55146;SDS011;41039;49.830;23.988;2023-07-09T04:16:43;17.60;;;11.67;;
55146;SDS011;41039;49.830;23.988;2023-07-09T04:19:08;20.17;;;13.47;;
55146;SDS011;41039;49.830;23.988;2023-07-09T04:21:33;22.27;;;12.67;;
55146;SDS011;41039;49.830;23.988;2023-07-09T04:23:59;17.50;;;11.93;;
55146;SDS011;41039;49.830;23.988;2023-07-09T04:26:24;17.52;;;10.70;;
55146;SDS011;41039;49.830;23.988;2023-07-09T04:28:49;21.60;;;12.47;;
55146;SDS011;41039;49.830;23.988;2023-07-09T04:31:14;22.17;;;14.07;;
55146;SDS011;41039;49.830;23.988;2023-07-09T04:33:40;20.40;;;12.95;;
55146;SDS011;41039;49.830;23.988;2023-07-09T04:36:05;20.80;;;11.30;;
55146;SDS011;41039;49.830;23.988;2023-07-09T04:38:30;17.63;;;11.88;;
55146;SDS011;41039;49.830;23.988;2023-07-09T04:40:55;20.13;;;11.63;;
55146;SDS011;41039;49.830;23.988;2023-07-09T04:43:21;14.63;;;9.90;;
55146;SDS011;41039;49.830;23.988;2023-07-09T04:45:46;15.33;;;10.17;;
55146;SDS011;41039;49.830;23.988;2023-07-09T04:48:11;16.08;;;9.57;;
55146;SDS011;41039;49.830;23.988;2023-07-09T04:50:37;13.07;;;8.17;;
55146;SDS011;41039;49.830;23.988;2023-07-09T04:53:02;13.50;;;8.53;;
55146;SDS011;41039;49.830;23.988;2023-07-09T04:55:28;13.80;;;7.72;;
55146;SDS011;41039;49.830;23.988;2023-07-09T04:57:53;12.73;;;7.77;;
55146;SDS011;41039;49.830;23.988;2023-07-09T05:00:19;12.13;;;8.25;;
55146;SDS011;41039;49.830;23.988;2023-07-09T05:02:44;15.00;;;9.03;;
55146;SDS011;41039;49.830;23.988;2023-07-09T05:05:09;13.40;;;8.57;;
55146;SDS011;41039;49.830;23.988;2023-07-09T05:07:36;12.15;;;8.45;;
55146;SDS011;41039;49.830;23.988;2023-07-09T05:10:02;15.60;;;8.10;;
55146;SDS011;41039;49.830;23.988;2023-07-09T05:12:27;12.15;;;8.30;;
55146;SDS011;41039;49.830;23.988;2023-07-09T05:14:52;10.55;;;7.50;;
55146;SDS011;41039;49.830;23.988;2023-07-09T05:17:17;13.32;;;7.32;;
55146;SDS011;41039;49.830;23.988;2023-07-09T05:19:43;13.33;;;8.53;;
55146;SDS011;41039;49.830;23.988;2023-07-09T05:22:08;15.03;;;7.80;;
55146;SDS011;41039;49.830;23.988;2023-07-09T05:24:33;13.23;;;8.23;;
55146;SDS011;41039;49.830;23.988;2023-07-09T05:26:58;15.87;;;8.00;;
55146;SDS011;41039;49.830;23.988;2023-07-09T05:29:24;10.77;;;7.83;;
55146;SDS011;41039;49.830;23.988;2023-07-09T05:31:49;12.00;;;6.68;;
55146;SDS011;41039;49.830;23.988;2023-07-09T05:34:15;12.40;;;7.47;;
55146;SDS011;41039;49.830;23.988;2023-07-09T05:36:40;11.80;;;7.55;;
55146;SDS011;41039;49.830;23.988;2023-07-09T05:39:05;12.35;;;8.57;;
55146;SDS011;41039;49.830;23.988;2023-07-09T05:41:31;12.00;;;7.88;;
55146;SDS011;41039;49.830;23.988;2023-07-09T05:43:56;14.13;;;9.23;;
55146;SDS011;41039;49.830;23.988;2023-07-09T05:46:22;11.88;;;8.27;;
55146;SDS011;41039;49.830;23.988;2023-07-09T05:48:47;13.80;;;9.45;;
55146;SDS011;41039;49.830;23.988;2023-07-09T05:51:13;12.52;;;7.68;;
55146;SDS011;41039;49.830;23.988;2023-07-09T05:53:38;12.85;;;7.72;;
55146;SDS011;41039;49.830;23.988;2023-07-09T05:56:04;14.00;;;8.43;;
55146;SDS011;41039;49.830;23.988;2023-07-09T05:58:29;13.20;;;8.88;;
55146;SDS011;41039;49.830;23.988;2023-07-09T06:00:55;12.88;;;10.68;;
55146;SDS011;41039;49.830;23.988;2023-07-09T06:03:21;14.00;;;10.55;;
55146;SDS011;41039;49.830;23.988;2023-07-09T06:05:47;18.33;;;11.20;;
55146;SDS011;41039;49.830;23.988;2023-07-09T06:08:14;14.45;;;9.63;;
55146;SDS011;41039;49.830;23.988;2023-07-09T06:10:40;11.95;;;8.32;;
55146;SDS011;41039;49.830;23.988;2023-07-09T06:13:07;14.43;;;9.02;;
55146;SDS011;41039;49.830;23.988;2023-07-09T06:15:32;15.13;;;10.50;;
55146;SDS011;41039;49.830;23.988;2023-07-09T06:17:58;17.52;;;11.68;;
55146;SDS011;41039;49.830;23.988;2023-07-09T06:20:23;14.63;;;10.27;;
55146;SDS011;41039;49.830;23.988;2023-07-09T06:22:48;16.55;;;11.02;;
55146;SDS011;41039;49.830;23.988;2023-07-09T06:25:13;13.50;;;8.10;;
55146;SDS011;41039;49.830;23.988;2023-07-09T06:27:39;13.23;;;8.82;;
55146;SDS011;41039;49.830;23.988;2023-07-09T06:30:04;9.40;;;6.27;;
55146;SDS011;41039;49.830;23.988;2023-07-09T06:32:30;11.15;;;6.60;;
55146;SDS011;41039;49.830;23.988;2023-07-09T06:34:55;12.63;;;7.43;;
55146;SDS011;41039;49.830;23.988;2023-07-09T06:37:20;11.80;;;7.90;;
55146;SDS011;41039;49.830;23.988;2023-07-09T06:39:45;17.90;;;9.27;;
55146;SDS011;41039;49.830;23.988;2023-07-09T06:42:11;14.57;;;8.93;;
55146;SDS011;41039;49.830;23.988;2023-07-09T06:44:36;17.07;;;9.60;;
55146;SDS011;41039;49.830;23.988;2023-07-09T06:47:01;13.23;;;6.40;;
55146;SDS011;41039;49.830;23.988;2023-07-09T06:49:27;6.07;;;4.57;;
55146;SDS011;41039;49.830;23.988;2023-07-09T06:51:52;11.45;;;6.93;;
55146;SDS011;41039;49.830;23.988;2023-07-09T06:54:17;10.40;;;6.70;;
55146;SDS011;41039;49.830;23.988;2023-07-09T06:56:43;12.40;;;8.98;;
55146;SDS011;41039;49.830;23.988;2023-07-09T06:59:08;12.37;;;6.90;;
55146;SDS011;41039;49.830;23.988;2023-07-09T07:01:33;7.63;;;4.70;;
55146;SDS011;41039;49.830;23.988;2023-07-09T07:03:58;7.05;;;4.30;;
55146;SDS011;41039;49.830;23.988;2023-07-09T07:06:24;7.33;;;4.57;;
55146;SDS011;41039;49.830;23.988;2023-07-09T07:08:49;12.03;;;4.23;;
55146;SDS011;41039;49.830;23.988;2023-07-09T07:11:14;8.20;;;5.10;;
55146;SDS011;41039;49.830;23.988;2023-07-09T07:13:40;9.93;;;5.80;;
55146;SDS011;41039;49.830;23.988;2023-07-09T07:16:06;9.32;;;5.57;;
55146;SDS011;41039;49.830;23.988;2023-07-09T07:18:32;18.67;;;10.90;;
55146;SDS011;41039;49.830;23.988;2023-07-09T07:20:58;10.43;;;6.22;;
55146;SDS011;41039;49.830;23.988;2023-07-09T07:23:23;10.60;;;6.07;;
55146;SDS011;41039;49.830;23.988;2023-07-09T07:25:49;9.68;;;5.65;;
55146;SDS011;41039;49.830;23.988;2023-07-09T07:28:14;5.00;;;3.95;;
55146;SDS011;41039;49.830;23.988;2023-07-09T07:30:40;7.18;;;3.88;;
55146;SDS011;41039;49.830;23.988;2023-07-09T07:33:05;6.65;;;4.40;;
55146;SDS011;41039;49.830;23.988;2023-07-09T07:35:30;6.20;;;3.77;;
55146;SDS011;41039;49.830;23.988;2023-07-09T07:37:55;5.70;;;3.22;;
55146;SDS011;41039;49.830;23.988;2023-07-09T07:40:21;5.75;;;3.92;;
55146;SDS011;41039;49.830;23.988;2023-07-09T07:42:46;4.90;;;3.50;;
55146;SDS011;41039;49.830;23.988;2023-07-09T07:45:11;7.93;;;3.83;;
55146;SDS011;41039;49.830;23.988;2023-07-09T07:47:36;6.68;;;4.10;;
55146;SDS011;41039;49.830;23.988;2023-07-09T07:50:02;6.60;;;3.63;;
55146;SDS011;41039;49.830;23.988;2023-07-09T07:52:27;6.00;;;4.05;;
55146;SDS011;41039;49.830;23.988;2023-07-09T07:54:53;5.57;;;4.43;;
55146;SDS011;41039;49.830;23.988;2023-07-09T07:57:18;9.43;;;5.43;;
55146;SDS011;41039;49.830;23.988;2023-07-09T07:59:43;13.60;;;6.97;;
55146;SDS011;41039;49.830;23.988;2023-07-09T08:02:12;11.05;;;6.30;;
55146;SDS011;41039;49.830;23.988;2023-07-09T08:04:38;6.85;;;4.55;;
55146;SDS011;41039;49.830;23.988;2023-07-09T08:07:04;4.15;;;3.50;;
55146;SDS011;41039;49.830;23.988;2023-07-09T08:09:29;4.88;;;2.95;;
55146;SDS011;41039;49.830;23.988;2023-07-09T08:11:54;4.80;;;3.10;;
55146;SDS011;41039;49.830;23.988;2023-07-09T08:14:20;5.67;;;3.20;;
55146;SDS011;41039;49.830;23.988;2023-07-09T08:16:45;4.35;;;2.95;;
55146;SDS011;41039;49.830;23.988;2023-07-09T08:19:11;5.05;;;3.25;;
55146;SDS011;41039;49.830;23.988;2023-07-09T08:21:36;5.53;;;3.47;;
55146;SDS011;41039;49.830;23.988;2023-07-09T08:24:01;6.07;;;3.73;;
55146;SDS011;41039;49.830;23.988;2023-07-09T08:26:26;5.50;;;3.33;;
55146;SDS011;41039;49.830;23.988;2023-07-09T08:28:52;4.87;;;3.23;;
55146;SDS011;41039;49.830;23.988;2023-07-09T08:31:18;6.65;;;3.00;;
55146;SDS011;41039;49.830;23.988;2023-07-09T08:33:44;6.75;;;3.95;;
55146;SDS011;41039;49.830;23.988;2023-07-09T08:36:09;9.43;;;4.20;;
55146;SDS011;41039;49.830;23.988;2023-07-09T08:38:34;8.37;;;5.33;;
55146;SDS011;41039;49.830;23.988;2023-07-09T08:46:20;9.15;;;5.10;;
55146;SDS011;41039;49.830;23.988;2023-07-09T08:48:50;10.65;;;5.00;;
55146;SDS011;41039;49.830;23.988;2023-07-09T08:53:54;5.15;;;3.38;;
55146;SDS011;41039;49.830;23.988;2023-07-09T08:56:21;9.00;;;4.65;;
55146;SDS011;41039;49.830;23.988;2023-07-09T08:58:47;7.43;;;4.55;;
55146;SDS011;41039;49.830;23.988;2023-07-09T09:01:19;8.43;;;4.63;;
55146;SDS011;41039;49.830;23.988;2023-07-09T09:03:49;6.57;;;4.75;;
55146;SDS011;41039;49.830;23.988;2023-07-09T09:06:28;6.78;;;4.35;;
55146;SDS011;41039;49.830;23.988;2023-07-09T09:13:48;5.90;;;4.07;;
55146;SDS011;41039;49.830;23.988;2023-07-09T09:16:24;6.22;;;3.95;;
55146;SDS011;41039;49.830;23.988;2023-07-09T09:18:50;5.80;;;3.47;;
55146;SDS011;41039;49.830;23.988;2023-07-09T09:21:26;7.70;;;4.47;;
55146;SDS011;41039;49.830;23.988;2023-07-09T09:23:56;8.77;;;5.10;;
55146;SDS011;41039;49.830;23.988;2023-07-09T09:26:24;6.35;;;4.18;;
55146;SDS011;41039;49.830;23.988;2023-07-09T09:28:51;6.80;;;3.65;;
55146;SDS011;41039;49.830;23.988;2023-07-09T09:31:17;5.95;;;3.30;;
55146;SDS011;41039;49.830;23.988;2023-07-09T09:33:44;8.43;;;3.17;;
55146;SDS011;41039;49.830;23.988;2023-07-09T09:36:17;6.40;;;3.10;;
55146;SDS011;41039;49.830;23.988;2023-07-09T09:38:42;8.25;;;3.88;;
55146;SDS011;41039;49.830;23.988;2023-07-09T09:41:15;4.80;;;2.13;;
55146;SDS011;41039;49.830;23.988;2023-07-09T09:43:41;3.72;;;2.50;;
55146;SDS011;41039;49.830;23.988;2023-07-09T09:46:07;5.28;;;3.28;;
55146;SDS011;41039;49.830;23.988;2023-07-09T09:48:32;4.30;;;2.60;;
55146;SDS011;41039;49.830;23.988;2023-07-09T09:50:58;4.60;;;2.92;;
55146;SDS011;41039;49.830;23.988;2023-07-09T09:53:26;9.18;;;5.43;;
55146;SDS011;41039;49.830;23.988;2023-07-09T09:55:53;6.55;;;2.92;;
55146;SDS011;41039;49.830;23.988;2023-07-09T09:58:19;3.25;;;2.50;;
55146;SDS011;41039;49.830;23.988;2023-07-09T10:00:51;5.97;;;2.88;;
55146;SDS011;41039;49.830;23.988;2023-07-09T10:03:17;5.15;;;3.05;;
55146;SDS011;41039;49.830;23.988;2023-07-09T10:05:52;5.10;;;3.47;;
55146;SDS011;41039;49.830;23.988;2023-07-09T10:11:39;4.38;;;2.90;;
55146;SDS011;41039;49.830;23.988;2023-07-09T10:14:00;5.60;;;3.22;;
55146;SDS011;41039;49.830;23.988;2023-07-09T10:16:44;4.13;;;2.65;;
55146;SDS011;41039;49.830;23.988;2023-07-09T10:21:46;3.72;;;2.78;;
55146;SDS011;41039;49.830;23.988;2023-07-09T10:26:46;3.50;;;2.55;;
55146;SDS011;41039;49.830;23.988;2023-07-09T10:31:41;7.60;;;3.53;;
55146;SDS011;41039;49.830;23.988;2023-07-09T10:34:17;4.60;;;4.10;;
55146;SDS011;41039;49.830;23.988;2023-07-09T10:39:14;8.80;;;3.10;;
55146;SDS011;41039;49.830;23.988;2023-07-09T10:41:41;5.60;;;2.47;;
55146;SDS011;41039;49.830;23.988;2023-07-09T10:44:16;5.30;;;2.47;;
55146;SDS011;41039;49.830;23.988;2023-07-09T10:46:42;3.60;;;2.53;;
55146;SDS011;41039;49.830;23.988;2023-07-09T10:49:10;5.10;;;2.30;;
55146;SDS011;41039;49.830;23.988;2023-07-09T10:51:39;5.30;;;2.72;;
55146;SDS011;41039;49.830;23.988;2023-07-09T10:56:42;5.25;;;2.95;;
55146;SDS011;41039;49.830;23.988;2023-07-09T10:59:20;4.90;;;2.78;;
55146;SDS011;41039;49.830;23.988;2023-07-09T11:01:48;3.63;;;2.35;;
55146;SDS011;41039;49.830;23.988;2023-07-09T11:06:43;3.63;;;2.50;;
55146;SDS011;41039;49.830;23.988;2023-07-09T11:09:24;3.38;;;2.30;;
55146;SDS011;41039;49.830;23.988;2023-07-09T11:11:52;4.13;;;2.78;;
55146;SDS011;41039;49.830;23.988;2023-07-09T11:14:27;4.65;;;2.80;;
55146;SDS011;41039;49.830;23.988;2023-07-09T11:16:53;4.70;;;2.67;;
55146;SDS011;41039;49.830;23.988;2023-07-09T11:19:20;4.72;;;2.80;;
55146;SDS011;41039;49.830;23.988;2023-07-09T11:21:59;4.53;;;2.70;;
55146;SDS011;41039;49.830;23.988;2023-07-09T11:24:36;7.38;;;2.58;;
55146;SDS011;41039;49.830;23.988;2023-07-09T11:27:15;3.42;;;2.40;;
55146;SDS011;41039;49.830;23.988;2023-07-09T11:29:48;3.97;;;2.80;;
55146;SDS011;41039;49.830;23.988;2023-07-09T11:34:44;7.45;;;2.55;;
55146;SDS011;41039;49.830;23.988;2023-07-09T11:37:11;3.40;;;2.22;;
55146;SDS011;41039;49.830;23.988;2023-07-09T11:42:02;5.10;;;3.20;;
55146;SDS011;41039;49.830;23.988;2023-07-09T11:44:28;3.33;;;2.63;;
55146;SDS011;41039;49.830;23.988;2023-07-09T11:49:31;4.45;;;2.90;;
55146;SDS011;41039;49.830;23.988;2023-07-09T11:51:59;5.13;;;3.03;;
55146;SDS011;41039;49.830;23.988;2023-07-09T11:54:25;4.20;;;3.10;;
55146;SDS011;41039;49.830;23.988;2023-07-09T11:56:54;4.17;;;2.53;;
55146;SDS011;41039;49.830;23.988;2023-07-09T11:59:20;4.28;;;2.80;;
55146;SDS011;41039;49.830;23.988;2023-07-09T12:01:45;3.53;;;2.90;;
55146;SDS011;41039;49.830;23.988;2023-07-09T12:04:14;4.20;;;2.45;;
55146;SDS011;41039;49.830;23.988;2023-07-09T12:06:40;4.15;;;2.60;;
55146;SDS011;41039;49.830;23.988;2023-07-09T12:09:05;4.95;;;3.08;;
55146;SDS011;41039;49.830;23.988;2023-07-09T12:11:32;4.22;;;3.28;;
55146;SDS011;41039;49.830;23.988;2023-07-09T12:14:01;4.63;;;3.17;;
55146;SDS011;41039;49.830;23.988;2023-07-09T12:16:28;4.30;;;3.40;;
55146;SDS011;41039;49.830;23.988;2023-07-09T12:18:53;7.72;;;3.30;;
55146;SDS011;41039;49.830;23.988;2023-07-09T12:21:19;5.68;;;3.13;;
55146;SDS011;41039;49.830;23.988;2023-07-09T12:23:44;3.83;;;2.78;;
55146;SDS011;41039;49.830;23.988;2023-07-09T12:26:11;4.75;;;3.00;;
55146;SDS011;41039;49.830;23.988;2023-07-09T12:28:37;5.28;;;3.85;;
55146;SDS011;41039;49.830;23.988;2023-07-09T12:31:02;5.17;;;3.20;;
55146;SDS011;41039;49.830;23.988;2023-07-09T12:33:28;6.73;;;3.63;;
55146;SDS011;41039;49.830;23.988;2023-07-09T12:36:00;5.55;;;2.97;;
55146;SDS011;41039;49.830;23.988;2023-07-09T12:38:27;4.45;;;3.15;;
55146;SDS011;41039;49.830;23.988;2023-07-09T12:40:53;3.83;;;3.03;;
55146;SDS011;41039;49.830;23.988;2023-07-09T12:43:26;4.97;;;3.08;;
55146;SDS011;41039;49.830;23.988;2023-07-09T12:45:52;4.90;;;3.20;;
55146;SDS011;41039;49.830;23.988;2023-07-09T12:48:24;6.15;;;2.80;;
55146;SDS011;41039;49.830;23.988;2023-07-09T12:50:50;6.28;;;2.90;;
55146;SDS011;41039;49.830;23.988;2023-07-09T12:53:16;5.63;;;3.00;;
55146;SDS011;41039;49.830;23.988;2023-07-09T12:55:42;3.20;;;2.60;;
55146;SDS011;41039;49.830;23.988;2023-07-09T12:58:10;3.65;;;2.70;;
55146;SDS011;41039;49.830;23.988;2023-07-09T13:00:36;5.47;;;3.10;;
55146;SDS011;41039;49.830;23.988;2023-07-09T13:03:01;4.83;;;3.60;;
55146;SDS011;41039;49.830;23.988;2023-07-09T13:05:26;5.53;;;3.57;;
55146;SDS011;41039;49.830;23.988;2023-07-09T13:07:53;4.45;;;3.22;;
55146;SDS011;41039;49.830;23.988;2023-07-09T13:10:23;3.15;;;2.33;;
55146;SDS011;41039;49.830;23.988;2023-07-09T13:12:51;6.65;;;2.80;;
55146;SDS011;41039;49.830;23.988;2023-07-09T13:17:56;5.22;;;2.63;;
55146;SDS011;41039;49.830;23.988;2023-07-09T13:20:21;4.72;;;2.70;;
55146;SDS011;41039;49.830;23.988;2023-07-09T13:22:46;4.03;;;3.30;;
55146;SDS011;41039;49.830;23.988;2023-07-09T13:25:11;4.50;;;2.50;;
55146;SDS011;41039;49.830;23.988;2023-07-09T13:27:37;4.47;;;2.70;;
55146;SDS011;41039;49.830;23.988;2023-07-09T13:30:02;3.70;;;2.63;;
55146;SDS011;41039;49.830;23.988;2023-07-09T13:32:28;5.57;;;2.60;;
55146;SDS011;41039;49.830;23.988;2023-07-09T13:34:53;3.10;;;2.40;;
55146;SDS011;41039;49.830;23.988;2023-07-09T13:37:18;4.32;;;2.25;;
55146;SDS011;41039;49.830;23.988;2023-07-09T13:39:43;4.20;;;2.47;;
55146;SDS011;41039;49.830;23.988;2023-07-09T13:42:11;4.15;;;2.40;;
55146;SDS011;41039;49.830;23.988;2023-07-09T13:44:37;4.20;;;2.72;;
55146;SDS011;41039;49.830;23.988;2023-07-09T13:47:03;6.53;;;2.65;;
55146;SDS011;41039;49.830;23.988;2023-07-09T13:49:28;5.50;;;2.42;;
55146;SDS011;41039;49.830;23.988;2023-07-09T13:51:55;5.37;;;2.30;;
55146;SDS011;41039;49.830;23.988;2023-07-09T13:56:47;4.78;;;2.55;;
55146;SDS011;41039;49.830;23.988;2023-07-09T13:59:18;4.72;;;2.80;;
55146;SDS011;41039;49.830;23.988;2023-07-09T14:01:44;5.38;;;2.28;;
55146;SDS011;41039;49.830;23.988;2023-07-09T14:04:13;4.47;;;2.45;;
55146;SDS011;41039;49.830;23.988;2023-07-09T14:06:39;4.32;;;2.75;;
55146;SDS011;41039;49.830;23.988;2023-07-09T14:09:05;6.38;;;3.60;;
55146;SDS011;41039;49.830;23.988;2023-07-09T14:11:31;4.18;;;2.40;;
55146;SDS011;41039;49.830;23.988;2023-07-09T14:13:57;3.92;;;2.38;;
55146;SDS011;41039;49.830;23.988;2023-07-09T14:16:22;3.55;;;2.50;;
55146;SDS011;41039;49.830;23.988;2023-07-09T14:18:48;5.25;;;2.53;;
55146;SDS011;41039;49.830;23.988;2023-07-09T14:21:13;5.10;;;2.70;;
55146;SDS011;41039;49.830;23.988;2023-07-09T14:23:39;3.22;;;2.30;;
55146;SDS011;41039;49.830;23.988;2023-07-09T14:26:04;4.47;;;2.45;;
55146;SDS011;41039;49.830;23.988;2023-07-09T14:28:30;3.67;;;2.50;;
55146;SDS011;41039;49.830;23.988;2023-07-09T14:30:56;5.13;;;2.70;;
55146;SDS011;41039;49.830;23.988;2023-07-09T14:33:21;3.93;;;2.50;;
55146;SDS011;41039;49.830;23.988;2023-07-09T14:35:46;3.23;;;2.50;;
55146;SDS011;41039;49.830;23.988;2023-07-09T14:38:22;4.22;;;3.03;;
55146;SDS011;41039;49.830;23.988;2023-07-09T14:40:49;3.47;;;2.65;;
55146;SDS011;41039;49.830;23.988;2023-07-09T14:43:14;4.32;;;2.78;;
55146;SDS011;41039;49.830;23.988;2023-07-09T14:45:40;3.20;;;2.78;;
55146;SDS011;41039;49.830;23.988;2023-07-09T14:48:12;3.83;;;2.27;;
55146;SDS011;41039;49.830;23.988;2023-07-09T14:50:37;3.55;;;2.60;;
55146;SDS011;41039;49.830;23.988;2023-07-09T14:53:03;3.72;;;2.38;;
55146;SDS011;41039;49.830;23.988;2023-07-09T14:55:28;3.43;;;2.20;;
55146;SDS011;41039;49.830;23.988;2023-07-09T14:57:54;4.70;;;2.72;;
55146;SDS011;41039;49.830;23.988;2023-07-09T15:00:20;3.85;;;2.75;;
55146;SDS011;41039;49.830;23.988;2023-07-09T15:02:47;6.32;;;2.47;;
55146;SDS011;41039;49.830;23.988;2023-07-09T15:05:17;4.75;;;2.78;;
55146;SDS011;41039;49.830;23.988;2023-07-09T15:07:42;4.63;;;2.80;;
55146;SDS011;41039;49.830;23.988;2023-07-09T15:10:13;4.60;;;3.22;;